SHASTA DAM (USBR) (SHA)

Elevation: 1067' · SACRAMENTO R basin · Operator: US Bureau of Reclamation

Provisional data, subject to change.
Query executed Thursday at 5:37:01   clock

Select a sensor type for a plot of data.
Note: Reservoir Flows are daily averages.

Earlier

Date RES ELE    STORAGE    RES CHG    TOC STO    ABV TOC    OUTFLOW    INFLOW    EVAP    FNF    RIV REL    PPT INC    RAIN    SPILL    DIS PWR   
 FEET   AF   AF   AF   AF   CFS   CFS   CFS   CFS   CFS   INCHES   INCHES   CFS   CFS  
04/27/2016 1055.61 4220596 6539 4552100 -331504 4508 7930 125 7366 0 0.00 61.54 0 4508
04/28/2016 1055.68 4222586 -- 4552100 -329514 4550 5637 84 6477 0 0.04 61.58 0 4550
04/29/2016 1055.82 4226566 3980 4552100 -325534 4381 6455 67 5858 0 0.00 61.58 0 4381
04/30/2016 1056.05 4233111 6545 4552100 -318989 4757 8191 134 5691 0 0.00 61.58 0 4757
05/01/2016 1056.11 4234824 1713 4552100 -317276 5242 6273 167 5562 0 0.00 61.58 0 5242
05/02/2016 1056.06 4233396 -1428 4552100 -318704 5090 4563 193 5549 0 0.00 61.58 0 5090
05/03/2016 1056.00 4231683 -1713 4552100 -320417 5425 4812 251 5722 0 0.00 61.58 0 5425
05/04/2016 1055.94 4229977 -1706 4552100 -322123 5403 4627 84 6698 0 0.02 61.60 0 5403
05/05/2016 1055.88 4228272 -1705 4552100 -323828 5577 4809 92 5415 0 0.17 61.77 0 5577
05/06/2016 1055.85 4227419 -853 4552100 -324681 5974 5594 50 6099 0 0.45 62.22 0 5974
05/07/2016 1055.80 4225997 -1422 4552100 -326103 5855 5146 8 6053 0 0.51 62.73 0 5855
05/08/2016 1055.76 4224860 -1137 4552100 -327240 5462 4939 50 5690 0 0.13 62.86 0 5462
05/09/2016 1055.72 4223723 -1137 4552100 -328377 5628 5164 109 5855 0 0.03 62.89 0 5628
05/10/2016 1055.61 4220596 -3127 4552100 -331504 6251 4699 25 5309 0 0.00 62.89 0 6251
05/11/2016 1055.57 4219459 -1137 4552100 -332641 5895 5347 25 5329 0 0.00 62.89 0 5895
05/12/2016 1055.44 4215763 -3696 4552100 -336337 5890 4227 200 5832 0 0.00 62.89 0 5890
05/13/2016 1055.37 4213773 -1990 4552100 -338327 5820 4959 142 6025 0 0.00 62.89 0 5820
05/14/2016 1055.35 4213204 -569 4552100 -338896 5853 5941 375 5448 0 0.00 62.89 0 5853
05/15/2016 1055.35 4213204 0 4552100 -338896 5725 5850 125 4970 0 0.00 62.89 0 5725
05/16/2016 1055.28 4211214 -1990 4552100 -340886 5800 5047 250 5513 0 0.01 62.90 0 5800
05/17/2016 1055.23 4209793 -1421 4552100 -342307 6264 5798 250 4988 0 0.00 62.90 0 6264
05/18/2016 1055.01 4203538 -6255 4552100 -348562 6124 3153 183 4812 0 0.00 62.90 0 6124
05/19/2016 1054.82 4198161 -5377 4552100 -353939 6492 4039 258 4684 0 0.00 62.90 0 6492
05/20/2016 1054.68 4194200 -3961 4552100 -357900 6069 4396 324 5364 0 0.00 62.90 0 6069
05/21/2016 1054.68 4194200 0 4552100 -357900 5913 5913 0 5460 0 0.03 62.93 0 5913
05/22/2016 1054.76 4196464 2264 4552100 -355636 5653 6852 58 5703 0 0.78 63.71 0 5653
05/23/2016 1054.67 4193917 -2547 4552100 -358183 6077 4893 100 5106 0 0.02 63.73 0 6077
05/24/2016 1054.50 4189108 -4809 4552100 -362992 6475 4299 249 4562 0 0.02 63.75 0 6475
05/25/2016 1054.34 4184581 -4527 -- -- 5828 3604 58 4664 0 0.22 -- 0 5828
05/26/2016 -- -- -- -- -- -- -- -- -- -- -- -- -- --

Later | Latest

Warning! This data is preliminary and subject to revision.

Show SHA Map | Plot SHA Data | 1 Month SHA Data | Real-Time SHA Data | SHA Info